KBJI

Bemidji Regional Airport

Bemidji, Minnesota, USA
METAR KBJI 201955Z AUTO 03009G15KT 10SM SCT047 SCT050 23/10 A3008 RMK AO2 T02320102
Observed Flight Rules
Aug-20 @ 19:55 UTC (33 minutes ago) Visual Flight Rules
Wind Visibility Clouds
30° at 9 knots
 Gusting to 15 knots
10 miles
  • Scattered at 4,700' AGL
  • Scattered at 5,000' AGL
Temperatures Readings
Current 23°C / 73°F
Dewpoint 10°C / 50°F
Humidity 44%
Altimeter 30.08" Hg
Pressure 1019 hPa
Elevation 420
METAR KBJI 201955Z AUTO 03009G15KT 10SM SCT047 SCT050 23/10 A3008 RMK AO2 T02320102
Observed Flight Rules
Aug-20 @ 19:55 UTC
(33 minutes ago)
VFR
Wind Visibility
30° at 9 knots
 Gusting to 15 knots
10 miles
Clouds
  • Scattered at 4,700' AGL
  • Scattered at 5,000' AGL
Temperature Dewpoint
23°C / 73°F 10°C / 50°F
Humidity Altimeter Pressure
44% 30.08" Hg 1019 hPa